Time;durP1;ratioP1;P1;durP2;ratioP2;P2;SDS_P1;SDS_P2;PMS_P1;PMS_P2;Temp;Humidity;BMP_temperature;BMP_pressure;BME280_temperature;BME280_humidity;BME280_pressure;Samples;Min_cycle;Max_cycle;Signal;HPM_P1;HPM_P2
2022/06/20 00:02:24;;;;;;;4.83;1.10;;;18.00;69.70;;;;;;5032674;28;20482;-80
2022/06/20 00:04:52;;;;;;;3.67;1.10;;;18.00;69.80;;;;;;5041592;28;20100;-80
2022/06/20 00:07:18;;;;;;;3.38;1.00;;;18.00;69.70;;;;;;5044154;28;20036;-79
2022/06/20 00:09:44;;;;;;;2.47;0.93;;;18.10;69.80;;;;;;5029632;28;21246;-80
2022/06/20 00:12:18;;;;;;;2.73;1.00;;;18.10;69.70;;;;;;5033431;28;20033;-80
2022/06/20 00:14:45;;;;;;;5.13;1.10;;;18.10;69.80;;;;;;5054630;28;20260;-80
2022/06/20 00:17:14;;;;;;;3.22;1.00;;;18.00;69.70;;;;;;5044337;28;20082;-79
2022/06/20 00:19:42;;;;;;;3.47;1.25;;;18.00;70.00;;;;;;5046452;28;20631;-79
2022/06/20 00:22:09;;;;;;;3.97;0.97;;;18.00;70.10;;;;;;5036429;28;20540;-79
2022/06/20 00:24:35;;;;;;;2.20;1.02;;;18.00;70.20;;;;;;5021640;28;20738;-79
2022/06/20 00:27:06;;;;;;;3.15;1.13;;;18.00;70.30;;;;;;5038589;28;20385;-79
2022/06/20 00:29:32;;;;;;;3.85;1.20;;;18.10;70.40;;;;;;5036085;28;20581;-79
2022/06/20 00:31:58;;;;;;;3.00;1.10;;;18.00;70.30;;;;;;5031650;28;20119;-80
2022/06/20 00:34:24;;;;;;;2.17;1.20;;;18.00;70.30;;;;;;5053672;28;20725;-79
2022/06/20 00:36:49;;;;;;;4.53;1.00;;;18.00;70.30;;;;;;5040720;28;20055;-79
2022/06/20 00:39:17;;;;;;;3.10;1.05;;;18.00;70.30;;;;;;5053439;28;20029;-79
2022/06/20 00:41:43;;;;;;;3.15;1.20;;;18.00;70.30;;;;;;5019551;28;20301;-79
2022/06/20 00:44:14;;;;;;;3.80;0.93;;;18.00;70.30;;;;;;5058184;28;20090;-80
2022/06/20 00:46:45;;;;;;;2.67;1.10;;;17.90;70.30;;;;;;5040848;28;20223;-79
2022/06/20 00:49:25;;;;;;;3.25;1.20;;;17.90;70.30;;;;;;5048515;28;20033;-80
2022/06/20 00:51:59;;;;;;;3.25;1.40;;;17.90;70.50;;;;;;5036490;28;20036;-79
2022/06/20 00:54:34;;;;;;;2.38;1.15;;;17.90;70.40;;;;;;5047113;28;20787;-79
2022/06/20 00:57:27;;;;;;;2.80;1.20;;;17.80;70.50;;;;;;5023785;28;20033;-80
2022/06/20 01:00:10;;;;;;;3.40;1.10;;;17.80;70.60;;;;;;5050915;28;20058;-80
2022/06/20 01:02:41;;;;;;;2.65;1.20;;;17.80;70.60;;;;;;5030060;28;20351;-79
2022/06/20 01:05:45;;;;;;;2.63;1.10;;;17.70;70.50;;;;;;5054477;28;20056;-80
2022/06/20 01:08:20;;;;;;;3.53;1.20;;;17.70;70.90;;;;;;5037127;28;20040;-80
2022/06/20 01:11:02;;;;;;;2.90;0.90;;;17.60;70.80;;;;;;5025292;28;21137;-80
2022/06/20 01:13:28;;;;;;;2.90;1.02;;;17.60;70.80;;;;;;5034604;28;20028;-79
2022/06/20 01:16:13;;;;;;;2.88;1.00;;;17.60;70.90;;;;;;5045854;28;20165;-80
2022/06/20 01:18:40;;;;;;;4.03;1.10;;;17.60;71.20;;;;;;5028402;28;20260;-79
2022/06/20 01:21:13;;;;;;;2.63;1.00;;;17.60;71.20;;;;;;5037090;28;20086;-80
2022/06/20 01:23:54;;;;;;;3.53;0.90;;;17.50;71.30;;;;;;5041488;28;20123;-79
2022/06/20 01:26:45;;;;;;;3.38;1.20;;;17.50;71.50;;;;;;5033870;28;20033;-79
2022/06/20 01:29:11;;;;;;;5.68;1.17;;;17.50;71.50;;;;;;5055598;28;20028;-79
2022/06/20 01:31:45;;;;;;;4.13;1.05;;;17.50;71.40;;;;;;5036700;28;20280;-79
2022/06/20 01:34:14;;;;;;;4.40;1.10;;;17.50;71.50;;;;;;5025385;28;20068;-80
2022/06/20 01:39:26;;;;;;;4.10;1.20;;;17.50;71.40;;;;;;5028733;28;20107;-79
2022/06/20 01:44:42;;;;;;;2.57;1.00;;;17.50;71.40;;;;;;5040567;28;20191;-80
2022/06/20 01:47:09;;;;;;;2.92;0.98;;;17.50;71.50;;;;;;5042540;28;20366;-80
2022/06/20 01:49:36;;;;;;;4.00;1.20;;;17.50;71.50;;;;;;5025365;28;20576;-80
2022/06/20 01:52:08;;;;;;;2.72;1.00;;;17.50;71.50;;;;;;5065272;28;20075;-80
2022/06/20 01:54:42;;;;;;;3.33;1.08;;;17.50;71.50;;;;;;5041107;28;20063;-79
2022/06/20 01:57:10;;;;;;;2.40;0.80;;;17.50;71.50;;;;;;5044731;28;20040;-79
2022/06/20 01:59:43;;;;;;;2.67;0.80;;;17.50;71.50;;;;;;5028033;28;20032;-79
2022/06/20 02:02:09;;;;;;;2.75;1.00;;;17.40;71.50;;;;;;5057655;28;20032;-80
2022/06/20 02:04:37;;;;;;;3.58;0.95;;;17.40;71.30;;;;;;5032874;28;20472;-79
2022/06/20 02:07:07;;;;;;;3.40;1.00;;;17.40;72.00;;;;;;5050356;28;20037;-79
2022/06/20 02:09:33;;;;;;;2.93;0.90;;;17.40;71.30;;;;;;5036320;28;22079;-79
2022/06/20 02:12:01;;;;;;;4.40;1.13;;;17.40;71.30;;;;;;5056833;28;20020;-80
2022/06/20 02:14:44;;;;;;;2.47;0.98;;;17.30;71.20;;;;;;5027500;28;20041;-79
2022/06/20 02:17:18;;;;;;;3.92;0.90;;;17.30;71.50;;;;;;5046452;28;20034;-80
2022/06/20 02:19:49;;;;;;;3.95;1.00;;;17.30;71.50;;;;;;5023556;28;24714;-80
2022/06/20 02:22:17;;;;;;;3.90;1.10;;;17.30;71.50;;;;;;5058569;28;20037;-79
2022/06/20 02:24:48;;;;;;;2.08;0.80;;;17.20;71.30;;;;;;5043061;28;20268;-80
2022/06/20 02:27:28;;;;;;;1.80;0.80;;;17.20;71.30;;;;;;5053427;28;20021;-80
2022/06/20 02:29:54;;;;;;;3.75;0.90;;;17.20;71.40;;;;;;5036684;28;20060;-79
2022/06/20 02:32:26;;;;;;;2.10;0.80;;;17.10;71.40;;;;;;5046203;28;20057;-79
2022/06/20 02:34:53;;;;;;;3.43;0.90;;;17.10;71.50;;;;;;5051073;28;20139;-80
2022/06/20 02:37:24;;;;;;;1.23;0.80;;;17.10;71.50;;;;;;5032526;28;20051;-79
2022/06/20 02:39:57;;;;;;;2.63;0.80;;;17.10;71.50;;;;;;5058806;28;20033;-80
2022/06/20 02:42:32;;;;;;;2.30;0.77;;;17.10;71.50;;;;;;5044146;28;20044;-79
2022/06/20 02:44:58;;;;;;;2.30;0.80;;;17.10;71.70;;;;;;5033445;28;20028;-79
2022/06/20 02:47:26;;;;;;;1.93;0.80;;;17.00;71.60;;;;;;5052122;28;20161;-80
2022/06/20 02:49:55;;;;;;;3.25;0.70;;;17.00;71.70;;;;;;5042842;28;20040;-79
2022/06/20 02:52:28;;;;;;;2.05;0.90;;;17.00;71.80;;;;;;5029847;28;20045;-79
2022/06/20 02:54:54;;;;;;;1.90;0.82;;;17.00;71.80;;;;;;5049080;28;20029;-80
2022/06/20 02:57:40;;;;;;;2.70;0.90;;;17.00;71.70;;;;;;5029489;28;20667;-79
2022/06/20 03:00:13;;;;;;;3.15;0.98;;;17.00;71.80;;;;;;5025340;28;20033;-79
2022/06/20 03:02:40;;;;;;;3.38;0.70;;;17.00;71.80;;;;;;5056009;28;20028;-79
2022/06/20 03:05:06;;;;;;;1.65;0.70;;;17.00;71.80;;;;;;5045539;28;20039;-80
2022/06/20 03:07:37;;;;;;;3.28;0.95;;;17.10;72.00;;;;;;5022679;28;22705;-79
2022/06/20 03:10:23;;;;;;;3.10;0.80;;;17.00;71.90;;;;;;5051261;28;20057;-79
2022/06/20 03:12:48;;;;;;;1.92;0.82;;;17.10;71.80;;;;;;5051077;28;20040;-79
2022/06/20 03:15:15;;;;;;;2.42;0.80;;;17.00;71.80;;;;;;5007161;28;20091;-79
2022/06/20 03:17:42;;;;;;;1.77;0.88;;;17.00;71.70;;;;;;5056824;28;20222;-80
2022/06/20 03:20:13;;;;;;;1.05;0.80;;;17.00;71.80;;;;;;5037020;28;20048;-79
2022/06/20 03:22:52;;;;;;;3.30;0.77;;;17.00;71.80;;;;;;5028249;28;20267;-80
2022/06/20 03:25:20;;;;;;;2.15;0.85;;;17.00;71.80;;;;;;5046360;28;20405;-79
2022/06/20 03:27:46;;;;;;;1.95;0.80;;;17.00;71.90;;;;;;5035175;28;20347;-79
2022/06/20 03:30:23;;;;;;;2.53;0.80;;;16.90;71.90;;;;;;5050818;28;20436;-79
2022/06/20 03:32:49;;;;;;;1.52;0.80;;;17.00;72.20;;;;;;5046186;28;20039;-79
2022/06/20 03:35:15;;;;;;;2.40;0.70;;;17.00;72.00;;;;;;5041452;28;20538;-79
2022/06/20 03:37:40;;;;;;;2.00;0.60;;;17.00;72.00;;;;;;5019775;28;20533;-79
2022/06/20 03:40:07;;;;;;;4.53;1.00;;;16.90;72.10;;;;;;5057626;28;20086;-80
2022/06/20 03:42:32;;;;;;;2.50;0.70;;;16.90;72.10;;;;;;5025992;28;20041;-80
2022/06/20 03:45:01;;;;;;;2.67;0.80;;;16.90;72.10;;;;;;5056242;28;20035;-79
2022/06/20 03:47:33;;;;;;;2.65;0.75;;;16.90;72.20;;;;;;5030503;28;20120;-79
2022/06/20 03:50:11;;;;;;;3.30;0.80;;;16.90;72.40;;;;;;5057250;28;20305;-80
2022/06/20 03:52:43;;;;;;;2.57;0.90;;;16.90;72.40;;;;;;5044360;28;20024;-79
2022/06/20 03:55:17;;;;;;;2.60;0.80;;;16.90;72.50;;;;;;5037781;28;20131;-79
2022/06/20 03:57:50;;;;;;;2.33;0.70;;;16.90;72.50;;;;;;5039034;28;20282;-79
2022/06/20 04:00:22;;;;;;;2.88;1.00;;;17.00;72.70;;;;;;5055605;28;20590;-79
2022/06/20 04:03:10;;;;;;;2.90;0.90;;;17.00;72.60;;;;;;5031026;28;20983;-80
2022/06/20 04:05:44;;;;;;;2.40;0.80;;;17.00;72.80;;;;;;5037328;28;20093;-79
2022/06/20 04:08:14;;;;;;;2.45;0.80;;;17.00;72.80;;;;;;5040263;28;20029;-79
2022/06/20 04:11:01;;;;;;;1.67;0.73;;;17.00;72.80;;;;;;5032509;28;20489;-80
2022/06/20 04:13:32;;;;;;;1.77;0.80;;;17.10;72.80;;;;;;5041473;28;20470;-79
2022/06/20 04:16:26;;;;;;;2.45;0.88;;;17.10;72.80;;;;;;5053270;28;20412;-79
2022/06/20 04:19:20;;;;;;;2.57;0.80;;;17.10;72.90;;;;;;5031073;28;20447;-80
2022/06/20 04:22:15;;;;;;;3.40;0.75;;;17.10;72.80;;;;;;5040218;28;20284;-79
2022/06/20 04:24:53;;;;;;;3.97;0.80;;;17.10;72.80;;;;;;5020900;28;21127;-80
2022/06/20 04:27:30;;;;;;;2.85;0.90;;;17.10;72.70;;;;;;5041595;28;20039;-80
2022/06/20 04:29:58;;;;;;;2.78;0.90;;;17.10;72.80;;;;;;5037112;28;20071;-80
2022/06/20 04:32:33;;;;;;;5.27;1.07;;;17.10;72.80;;;;;;5041249;28;20035;-79
2022/06/20 04:35:33;;;;;;;2.95;1.08;;;17.10;72.90;;;;;;5029995;28;20039;-80
2022/06/20 04:38:12;;;;;;;2.28;0.93;;;17.10;72.80;;;;;;5047889;28;20075;-79
2022/06/20 04:40:47;;;;;;;1.90;0.90;;;17.10;72.80;;;;;;5016959;28;20655;-80
2022/06/20 04:43:50;;;;;;;1.85;1.00;;;17.00;72.80;;;;;;5053371;28;20081;-79
2022/06/20 04:46:38;;;;;;;2.33;1.00;;;17.00;73.00;;;;;;5042656;28;20033;-79
2022/06/20 04:49:04;;;;;;;2.50;1.08;;;17.00;73.00;;;;;;5048830;28;20099;-80
2022/06/20 04:51:35;;;;;;;1.85;0.90;;;17.00;73.00;;;;;;5025284;28;20335;-79
2022/06/20 04:54:03;;;;;;;2.13;0.90;;;17.00;73.10;;;;;;5044897;28;20036;-79
2022/06/20 04:56:29;;;;;;;4.10;1.08;;;17.00;73.20;;;;;;5018706;28;20158;-79
2022/06/20 04:59:06;;;;;;;2.80;0.98;;;17.00;73.30;;;;;;5048717;28;20404;-80
2022/06/20 05:01:34;;;;;;;2.97;1.10;;;17.00;73.50;;;;;;5024232;28;20357;-80
2022/06/20 05:04:26;;;;;;;1.67;0.90;;;17.10;73.30;;;;;;5040410;28;20032;-80
2022/06/20 05:06:55;;;;;;;2.80;1.05;;;17.10;73.40;;;;;;5034031;28;20092;-79
2022/06/20 05:09:49;;;;;;;2.72;1.00;;;17.10;73.40;;;;;;5026779;28;20040;-79
2022/06/20 05:12:25;;;;;;;3.17;1.10;;;17.10;73.40;;;;;;5022628;28;20067;-80
2022/06/20 05:15:40;;;;;;;3.85;1.20;;;17.10;73.30;;;;;;5037269;28;20032;-80
2022/06/20 05:18:28;;;;;;;4.20;1.00;;;17.10;73.50;;;;;;5009485;28;20049;-79
2022/06/20 05:21:00;;;;;;;2.65;0.90;;;17.10;73.50;;;;;;5035086;28;20140;-79
2022/06/20 05:23:42;;;;;;;2.88;0.95;;;17.10;73.50;;;;;;5020904;28;20259;-79
2022/06/20 05:26:17;;;;;;;2.60;1.00;;;17.10;73.70;;;;;;5032491;28;20040;-79
2022/06/20 05:28:46;;;;;;;2.50;1.00;;;17.10;73.60;;;;;;5024845;28;20520;-79
2022/06/20 05:31:19;;;;;;;2.23;1.23;;;17.10;73.70;;;;;;5034482;28;20037;-79
2022/06/20 05:34:01;;;;;;;3.20;1.10;;;17.20;74.00;;;;;;5051733;28;20473;-79
2022/06/20 05:36:39;;;;;;;2.95;0.80;;;17.20;74.10;;;;;;5049557;28;20079;-79
2022/06/20 05:39:21;;;;;;;3.13;1.00;;;17.20;74.10;;;;;;5014855;28;20170;-80
2022/06/20 05:41:47;;;;;;;2.60;1.13;;;17.20;74.00;;;;;;5042241;28;20093;-79
2022/06/20 05:44:13;;;;;;;3.63;1.20;;;17.30;74.00;;;;;;5024358;28;20287;-80
2022/06/20 05:46:48;;;;;;;3.88;0.95;;;17.30;74.10;;;;;;5055257;28;20036;-79
2022/06/20 05:49:19;;;;;;;3.50;1.20;;;17.30;74.30;;;;;;5026504;28;20044;-79
2022/06/20 05:51:46;;;;;;;2.35;1.17;;;17.40;74.70;;;;;;5063202;28;20115;-79
2022/06/20 05:54:17;;;;;;;3.53;1.20;;;17.50;75.00;;;;;;5021173;28;20036;-79
2022/06/20 05:56:54;;;;;;;3.08;1.10;;;17.60;75.00;;;;;;5048086;28;20436;-79
2022/06/20 05:59:33;;;;;;;3.28;1.17;;;17.60;74.80;;;;;;5010429;28;20440;-79
2022/06/20 06:02:09;;;;;;;2.47;0.93;;;17.70;74.50;;;;;;5042032;28;20036;-79
2022/06/20 06:04:48;;;;;;;2.10;1.02;;;17.80;74.50;;;;;;5027423;28;20036;-79
2022/06/20 06:07:17;;;;;;;3.13;1.00;;;17.80;74.40;;;;;;5038565;28;20205;-79
2022/06/20 06:09:59;;;;;;;2.83;1.20;;;17.90;74.50;;;;;;5029097;28;20107;-79
2022/06/20 06:12:41;;;;;;;4.50;1.17;;;18.00;74.50;;;;;;5040692;28;20090;-80
2022/06/20 06:15:34;;;;;;;1.85;0.93;;;18.10;74.50;;;;;;5011276;28;20271;-80
2022/06/20 06:18:07;;;;;;;4.05;1.20;;;18.20;74.50;;;;;;5043817;28;20489;-80
2022/06/20 06:20:35;;;;;;;2.43;1.03;;;18.20;74.30;;;;;;5037414;28;20149;-80
2022/06/20 06:23:06;;;;;;;2.17;1.17;;;18.30;74.20;;;;;;5039346;28;20037;-79
2022/06/20 06:25:38;;;;;;;3.50;0.98;;;18.40;74.00;;;;;;5014976;28;20025;-80
2022/06/20 06:28:14;;;;;;;3.17;1.02;;;18.40;74.00;;;;;;5035375;28;20336;-80
2022/06/20 06:30:45;;;;;;;2.42;1.10;;;18.40;73.90;;;;;;5018688;28;20104;-79
2022/06/20 06:33:35;;;;;;;1.07;0.80;;;18.50;73.80;;;;;;5030640;28;20059;-80
2022/06/20 06:36:09;;;;;;;3.50;0.90;;;18.50;73.40;;;;;;5046249;28;20029;-80
2022/06/20 06:39:03;;;;;;;4.25;1.08;;;18.60;73.50;;;;;;5057156;28;20043;-80
2022/06/20 06:41:34;;;;;;;2.67;1.00;;;18.60;72.80;;;;;;5031322;28;20075;-80
2022/06/20 06:44:04;;;;;;;2.22;1.00;;;18.60;73.20;;;;;;5048997;28;20033;-79
2022/06/20 06:46:42;;;;;;;3.30;1.00;;;18.60;72.90;;;;;;5029883;28;20036;-80
2022/06/20 06:49:53;;;;;;;2.78;1.00;;;18.70;71.90;;;;;;5051587;28;20033;-80
2022/06/20 06:52:42;;;;;;;3.47;1.10;;;18.60;72.00;;;;;;4996819;28;20107;-80
2022/06/20 06:55:17;;;;;;;2.17;0.98;;;18.70;72.90;;;;;;5050010;28;20036;-80
2022/06/20 06:57:49;;;;;;;3.00;1.00;;;18.70;72.60;;;;;;5012566;28;20036;-79
2022/06/20 07:00:21;;;;;;;2.53;1.10;;;18.70;72.90;;;;;;5050314;28;20029;-79
2022/06/20 07:02:59;;;;;;;2.45;1.17;;;18.80;72.70;;;;;;5026466;28;20678;-80
2022/06/20 07:05:32;;;;;;;2.55;1.00;;;18.90;72.40;;;;;;5039809;28;20394;-80
2022/06/20 07:08:09;;;;;;;2.03;1.00;;;18.90;72.80;;;;;;5043912;28;20025;-80
2022/06/20 07:10:52;;;;;;;2.20;1.10;;;19.10;72.50;;;;;;5045967;28;20029;-80
2022/06/20 07:13:28;;;;;;;2.37;1.10;;;19.20;71.90;;;;;;5030412;28;20082;-80
2022/06/20 07:15:57;;;;;;;2.58;0.90;;;19.30;71.80;;;;;;5050838;28;20287;-80
2022/06/20 07:18:23;;;;;;;3.05;1.00;;;19.40;72.40;;;;;;5035578;28;20041;-80
2022/06/20 07:20:50;;;;;;;2.53;1.00;;;19.50;72.30;;;;;;5039295;28;20240;-80
2022/06/20 07:23:18;;;;;;;1.63;1.00;;;19.60;72.10;;;;;;5039063;28;20095;-80
2022/06/20 07:25:48;;;;;;;3.15;1.00;;;19.60;71.60;;;;;;5045654;28;20059;-79
2022/06/20 07:28:19;;;;;;;2.28;0.85;;;19.70;71.30;;;;;;5050875;28;20086;-80
2022/06/20 07:30:52;;;;;;;1.27;0.90;;;19.70;72.70;;;;;;5014222;28;20620;-79
2022/06/20 07:33:46;;;;;;;1.20;0.80;;;19.80;71.30;;;;;;5028698;28;20124;-79
2022/06/20 07:36:15;;;;;;;2.35;0.98;;;19.90;70.20;;;;;;5056402;28;20033;-80
2022/06/20 07:38:52;;;;;;;2.60;0.90;;;20.00;71.50;;;;;;5022985;28;20047;-80
2022/06/20 07:41:28;;;;;;;2.10;1.08;;;20.10;70.70;;;;;;5053066;28;20115;-80
2022/06/20 07:44:11;;;;;;;2.58;0.93;;;20.20;70.80;;;;;;5035402;28;20555;-80
2022/06/20 07:47:11;;;;;;;1.93;0.80;;;20.30;70.70;;;;;;5031413;28;20037;-80
2022/06/20 07:49:53;;;;;;;1.95;0.90;;;20.60;69.90;;;;;;5019362;28;20099;-79
2022/06/20 07:52:28;;;;;;;2.33;0.90;;;20.70;70.30;;;;;;5058139;28;20101;-80
2022/06/20 07:54:58;;;;;;;2.33;1.20;;;20.80;69.10;;;;;;5019142;28;20168;-80
2022/06/20 07:57:39;;;;;;;1.23;1.00;;;20.80;70.00;;;;;;5055438;28;20024;-80
2022/06/20 08:00:15;;;;;;;1.40;0.83;;;20.90;69.00;;;;;;5025259;28;20155;-80
2022/06/20 08:02:52;;;;;;;2.38;0.88;;;21.10;70.10;;;;;;5019105;28;20465;-79
2022/06/20 08:05:37;;;;;;;2.72;1.00;;;21.30;69.70;;;;;;5064163;28;20063;-80
2022/06/20 08:08:11;;;;;;;1.63;1.00;;;21.50;70.70;;;;;;5057139;28;20583;-80
2022/06/20 08:10:45;;;;;;;3.30;1.00;;;21.80;74.00;;;;;;5039704;28;20044;-80
2022/06/20 08:13:19;;;;;;;2.27;1.20;;;22.30;74.60;;;;;;5050753;28;20032;-81
2022/06/20 08:15:55;;;;;;;1.88;1.05;;;22.90;74.80;;;;;;5011279;28;20305;-80
2022/06/20 08:18:22;;;;;;;2.55;1.10;;;23.50;75.10;;;;;;5048969;28;20174;-81
2022/06/20 08:20:55;;;;;;;2.20;1.20;;;24.10;74.90;;;;;;5028726;28;20052;-80
2022/06/20 08:23:28;;;;;;;2.05;1.00;;;24.60;70.90;;;;;;5041523;28;20375;-80
2022/06/20 08:26:01;;;;;;;1.67;1.30;;;25.00;70.00;;;;;;5038254;28;20114;-80
2022/06/20 08:28:38;;;;;;;2.67;1.05;;;25.40;69.50;;;;;;5041160;28;20028;-80
2022/06/20 08:31:15;;;;;;;1.92;1.20;;;25.70;65.90;;;;;;5030347;28;20729;-80
2022/06/20 08:33:48;;;;;;;2.85;1.10;;;25.80;65.10;;;;;;5046376;28;20072;-80
2022/06/20 08:36:27;;;;;;;1.60;1.10;;;25.80;63.50;;;;;;5036136;28;20488;-80
2022/06/20 08:38:56;;;;;;;1.30;1.00;;;25.80;63.30;;;;;;5051088;28;20739;-80
2022/06/20 08:41:27;;;;;;;1.73;0.98;;;25.80;65.40;;;;;;5027761;28;20086;-81
2022/06/20 08:44:32;;;;;;;1.73;1.30;;;26.00;63.90;;;;;;5043697;28;20254;-81
2022/06/20 08:47:14;;;;;;;3.00;1.20;;;26.20;64.50;;;;;;5025289;28;20499;-80
2022/06/20 08:49:59;;;;;;;2.05;1.13;;;26.60;61.60;;;;;;5042707;28;20066;-80
2022/06/20 08:52:27;;;;;;;1.40;1.10;;;26.70;60.80;;;;;;5031937;28;20053;-80
2022/06/20 08:55:47;;;;;;;1.73;1.13;;;26.70;62.20;;;;;;5032437;28;20044;-81
2022/06/20 08:59:02;;;;;;;2.03;1.23;;;26.60;57.90;;;;;;4979567;28;20120;-80
2022/06/20 09:01:46;;;;;;;2.35;1.20;;;26.30;56.50;;;;;;5034877;28;20047;-80
2022/06/20 09:04:11;;;;;;;2.13;1.20;;;26.00;57.30;;;;;;5014013;28;20115;-80
2022/06/20 09:06:43;;;;;;;1.67;1.00;;;25.60;58.00;;;;;;5031221;28;20115;-80
2022/06/20 09:09:11;;;;;;;1.50;1.38;;;25.40;59.30;;;;;;5048497;28;20094;-80
2022/06/20 09:11:46;;;;;;;2.70;1.40;;;25.30;61.50;;;;;;5026161;28;20460;-81
2022/06/20 09:14:23;;;;;;;2.13;0.90;;;25.50;63.90;;;;;;5051165;28;20047;-81
2022/06/20 09:17:06;;;;;;;2.22;1.00;;;25.90;61.30;;;;;;5038622;28;20634;-79
2022/06/20 09:19:41;;;;;;;1.67;1.17;;;26.10;59.80;;;;;;5014220;28;20055;-80
2022/06/20 09:22:48;;;;;;;1.55;1.10;;;26.30;59.00;;;;;;5039179;28;20047;-80
2022/06/20 09:25:29;;;;;;;2.20;1.00;;;26.40;57.00;;;;;;5043312;28;20563;-81
2022/06/20 09:28:15;;;;;;;1.87;1.10;;;26.40;56.80;;;;;;5040027;28;20691;-80
2022/06/20 09:30:44;;;;;;;2.55;1.20;;;26.40;56.90;;;;;;5054638;28;20016;-80
2022/06/20 09:33:18;;;;;;;1.38;0.90;;;26.40;60.70;;;;;;5053830;28;20518;-80
2022/06/20 09:36:08;;;;;;;2.45;1.30;;;26.70;60.80;;;;;;5018633;28;20236;-80
2022/06/20 09:38:52;;;;;;;2.08;1.08;;;26.80;57.80;;;;;;5031411;28;20539;-80
2022/06/20 09:41:29;;;;;;;1.20;0.90;;;26.90;56.20;;;;;;5050956;28;20115;-80
2022/06/20 09:44:18;;;;;;;2.75;1.10;;;26.80;55.40;;;;;;5024442;28;20713;-80
2022/06/20 09:47:22;;;;;;;2.47;1.25;;;26.90;57.00;;;;;;5049624;28;20033;-80
2022/06/20 09:49:50;;;;;;;1.23;1.00;;;27.20;57.50;;;;;;5019916;28;20045;-81
2022/06/20 09:52:19;;;;;;;2.53;1.10;;;27.50;60.70;;;;;;5026876;28;20067;-81
2022/06/20 09:55:03;;;;;;;1.17;1.00;;;28.00;59.90;;;;;;5030467;28;20479;-80
2022/06/20 09:57:41;;;;;;;2.00;1.15;;;28.40;58.30;;;;;;5043517;28;20045;-80
2022/06/20 10:00:19;;;;;;;2.05;1.02;;;28.80;61.00;;;;;;5019884;28;20118;-80
2022/06/20 10:03:18;;;;;;;2.00;1.20;;;29.20;57.50;;;;;;5052412;28;20111;-81
2022/06/20 10:05:51;;;;;;;1.95;1.10;;;29.50;54.60;;;;;;5025646;28;20440;-81
2022/06/20 10:08:54;;;;;;;1.97;1.00;;;29.70;57.30;;;;;;5038623;28;20227;-81
2022/06/20 10:11:23;;;;;;;2.33;1.10;;;30.00;54.40;;;;;;5042665;28;20033;-80
2022/06/20 10:13:54;;;;;;;2.20;1.27;;;30.30;57.70;;;;;;5045253;28;20116;-81
2022/06/20 10:16:46;;;;;;;2.63;1.20;;;30.60;54.60;;;;;;5038418;28;20891;-80
2022/06/20 10:19:36;;;;;;;1.38;1.10;;;30.70;52.70;;;;;;5033400;28;20130;-81
2022/06/20 10:22:26;;;;;;;1.80;1.30;;;30.70;51.80;;;;;;5027690;28;20386;-80
2022/06/20 10:25:04;;;;;;;2.00;1.17;;;30.60;52.20;;;;;;5034126;28;20024;-81
2022/06/20 10:27:47;;;;;;;2.20;1.30;;;30.70;51.50;;;;;;5056831;28;20131;-81
2022/06/20 10:30:18;;;;;;;1.60;1.20;;;30.80;51.90;;;;;;5025171;28;20128;-81
2022/06/20 10:32:54;;;;;;;1.60;1.02;;;31.00;54.00;;;;;;5047173;28;20048;-81
2022/06/20 10:36:05;;;;;;;2.23;1.00;;;31.30;55.20;;;;;;5051323;28;20305;-81
2022/06/20 10:39:02;;;;;;;1.80;1.30;;;31.80;51.60;;;;;;5015207;28;20248;-81
2022/06/20 10:42:02;;;;;;;1.75;1.10;;;32.30;51.00;;;;;;5030807;28;20074;-81
2022/06/20 10:44:49;;;;;;;1.60;1.20;;;32.60;49.80;;;;;;5032948;28;20040;-81
2022/06/20 10:47:36;;;;;;;1.60;1.15;;;33.00;51.70;;;;;;5034936;28;20031;-81
2022/06/20 10:50:31;;;;;;;2.83;1.47;;;33.30;47.10;;;;;;5038862;28;20036;-81
2022/06/20 10:53:13;;;;;;;1.63;1.20;;;33.30;47.00;;;;;;5019633;28;20033;-81
2022/06/20 10:56:03;;;;;;;1.48;1.05;;;33.10;46.20;;;;;;5035903;28;20040;-80
2022/06/20 10:58:49;;;;;;;1.88;1.35;;;32.80;44.60;;;;;;5039145;28;20087;-81
2022/06/20 11:01:34;;;;;;;2.05;1.40;;;32.60;46.80;;;;;;5043676;28;20044;-81
2022/06/20 11:04:11;;;;;;;2.03;1.30;;;32.60;48.50;;;;;;5041390;28;20052;-81
2022/06/20 11:07:04;;;;;;;2.50;1.45;;;32.70;48.00;;;;;;5050340;28;20147;-81
2022/06/20 11:09:38;;;;;;;1.95;1.30;;;33.00;45.70;;;;;;5029801;28;20035;-81
2022/06/20 11:12:20;;;;;;;2.03;1.20;;;33.20;45.50;;;;;;5034597;28;20350;-81
2022/06/20 11:15:03;;;;;;;2.13;1.30;;;33.20;44.30;;;;;;5051151;28;20629;-81
2022/06/20 11:17:52;;;;;;;1.53;1.17;;;33.00;43.50;;;;;;5037068;28;20335;-81
2022/06/20 11:20:24;;;;;;;2.35;1.20;;;32.70;43.40;;;;;;5032927;28;20123;-80
2022/06/20 11:23:17;;;;;;;2.13;1.30;;;32.50;45.20;;;;;;5053997;28;20127;-81
2022/06/20 11:26:08;;;;;;;1.30;1.20;;;32.50;44.40;;;;;;5030421;28;20254;-80
2022/06/20 11:28:56;;;;;;;1.75;1.30;;;32.60;43.00;;;;;;5023905;28;20681;-80
2022/06/20 11:31:52;;;;;;;1.73;1.13;;;32.60;43.00;;;;;;5019501;28;20562;-80
2022/06/20 11:34:56;;;;;;;1.50;1.33;;;32.60;42.60;;;;;;5040416;28;20137;-81
2022/06/20 11:37:53;;;;;;;1.50;1.30;;;32.60;43.20;;;;;;5017384;28;20306;-81
2022/06/20 11:40:45;;;;;;;3.47;1.40;;;32.70;43.20;;;;;;5023166;28;20171;-80
2022/06/20 11:43:32;;;;;;;2.28;1.20;;;32.70;42.20;;;;;;5027528;28;20640;-80
2022/06/20 11:46:23;;;;;;;1.67;1.30;;;32.60;42.40;;;;;;5050361;28;20239;-81
2022/06/20 11:49:30;;;;;;;2.50;1.10;;;32.40;39.60;;;;;;5026514;28;20163;-80
2022/06/20 11:52:19;;;;;;;1.83;1.20;;;32.20;40.70;;;;;;5021578;28;20784;-81
2022/06/20 11:55:04;;;;;;;1.92;1.25;;;32.30;43.00;;;;;;5023835;28;20630;-82
2022/06/20 11:57:42;;;;;;;2.17;1.40;;;32.50;42.40;;;;;;5033985;28;20036;-81
2022/06/20 12:00:25;;;;;;;2.90;1.47;;;32.70;42.40;;;;;;5032225;28;20067;-81
2022/06/20 12:03:11;;;;;;;2.22;1.20;;;32.80;40.50;;;;;;5031605;28;20215;-81
2022/06/20 12:05:47;;;;;;;2.80;1.30;;;32.70;39.70;;;;;;5033752;28;20037;-81
2022/06/20 12:08:21;;;;;;;3.00;1.40;;;32.50;40.10;;;;;;5044146;28;20033;-81
2022/06/20 12:10:47;;;;;;;2.58;1.30;;;32.20;39.80;;;;;;5024866;28;20178;-80
2022/06/20 12:13:44;;;;;;;2.60;1.23;;;31.90;39.90;;;;;;5045775;28;20047;-81
2022/06/20 12:16:38;;;;;;;2.70;1.20;;;31.60;39.00;;;;;;5053532;28;20098;-80
2022/06/20 12:24:57;;;;;;;3.78;1.23;;;31.00;40.40;;;;;;5045465;28;20349;-81
2022/06/20 12:27:23;;;;;;;1.52;1.20;;;30.80;40.90;;;;;;5019676;28;20087;-81
2022/06/20 12:29:49;;;;;;;2.30;1.40;;;30.80;41.70;;;;;;5026580;28;20232;-81
2022/06/20 12:32:28;;;;;;;1.92;1.20;;;30.90;42.00;;;;;;5046681;28;20055;-80
2022/06/20 12:35:03;;;;;;;3.25;1.63;;;31.00;39.40;;;;;;5054961;28;20336;-80
2022/06/20 12:37:55;;;;;;;3.10;1.35;;;31.10;40.90;;;;;;5034200;28;20501;-81
2022/06/20 12:40:36;;;;;;;2.35;1.13;;;31.10;40.30;;;;;;5048163;28;20132;-80
2022/06/20 12:43:17;;;;;;;2.80;1.23;;;31.20;40.40;;;;;;5022023;28;20032;-81
2022/06/20 12:46:01;;;;;;;1.60;1.20;;;31.40;40.60;;;;;;5009266;28;20121;-80
2022/06/20 12:48:58;;;;;;;1.38;1.10;;;31.70;39.70;;;;;;5038484;28;20111;-80
2022/06/20 12:51:53;;;;;;;1.70;1.00;;;31.90;39.60;;;;;;5031265;28;20072;-81
2022/06/20 12:54:30;;;;;;;2.15;1.10;;;32.20;39.50;;;;;;5030893;28;20142;-81
2022/06/20 12:56:58;;;;;;;2.00;1.10;;;32.60;40.40;;;;;;5018996;28;21700;-80
2022/06/20 12:59:46;;;;;;;2.55;1.30;;;32.80;40.30;;;;;;5045021;28;20406;-80
2022/06/20 13:02:45;;;;;;;2.33;1.20;;;32.90;39.10;;;;;;5050853;28;20041;-80
2022/06/20 13:05:47;;;;;;;2.55;1.20;;;32.90;37.20;;;;;;5041662;28;20254;-80
2022/06/20 13:08:37;;;;;;;2.08;1.20;;;32.80;36.90;;;;;;5033147;28;20033;-80
2022/06/20 13:11:03;;;;;;;1.83;1.10;;;32.60;36.70;;;;;;5034402;28;20029;-80
2022/06/20 13:13:34;;;;;;;2.53;1.15;;;32.40;38.00;;;;;;5018501;28;20064;-80
2022/06/20 13:16:18;;;;;;;1.20;1.10;;;32.20;37.80;;;;;;5033980;28;20405;-80
2022/06/20 13:18:58;;;;;;;2.53;1.10;;;32.20;37.80;;;;;;5039077;28;20417;-81
2022/06/20 13:21:44;;;;;;;3.03;1.33;;;32.30;38.00;;;;;;5034290;28;20179;-81
2022/06/20 13:24:24;;;;;;;2.15;1.15;;;32.50;38.60;;;;;;5038854;28;20124;-81
2022/06/20 13:27:07;;;;;;;2.10;1.17;;;32.60;37.70;;;;;;5055658;28;20041;-81
2022/06/20 13:29:39;;;;;;;2.80;1.20;;;32.60;37.50;;;;;;5070824;28;20033;-80
2022/06/20 13:32:15;;;;;;;2.50;1.20;;;32.60;37.30;;;;;;5028301;28;20040;-81
2022/06/20 13:34:55;;;;;;;2.40;1.40;;;32.50;38.80;;;;;;5040235;28;20158;-81
2022/06/20 13:37:53;;;;;;;2.20;1.30;;;32.50;37.40;;;;;;5042390;28;20106;-81
2022/06/20 13:40:45;;;;;;;2.83;1.25;;;32.70;37.60;;;;;;5042543;28;20040;-81
2022/06/20 13:43:19;;;;;;;2.58;1.30;;;32.90;37.40;;;;;;5032866;28;20408;-80
2022/06/20 13:45:50;;;;;;;2.33;1.17;;;33.10;39.20;;;;;;5027311;28;20029;-80
2022/06/20 13:48:39;;;;;;;1.73;1.17;;;33.30;37.70;;;;;;5052666;28;20041;-80
2022/06/20 13:51:18;;;;;;;2.30;1.13;;;33.30;36.30;;;;;;5032771;28;20044;-80
2022/06/20 13:54:22;;;;;;;1.92;1.33;;;33.30;35.70;;;;;;5038458;28;20152;-80
2022/06/20 13:57:03;;;;;;;2.55;1.08;;;33.30;36.10;;;;;;5060539;28;20035;-81